createdAt,value
2022-11-09T00:00:58.092Z,14.11
2022-11-09T00:03:27.649Z,14.10
2022-11-09T00:05:58.224Z,14.11
2022-11-09T00:08:27.774Z,14.10
2022-11-09T00:11:05.222Z,14.07
2022-11-09T00:13:35.166Z,14.04
2022-11-09T00:16:05.883Z,14.02
2022-11-09T00:18:38.244Z,14.01
2022-11-09T00:21:11.175Z,14.00
2022-11-09T00:23:40.770Z,13.97
2022-11-09T00:26:15.031Z,13.95
2022-11-09T00:28:44.814Z,13.92
2022-11-09T00:31:17.439Z,13.92
2022-11-09T00:33:51.073Z,13.90
2022-11-09T00:36:22.194Z,13.90
2022-11-09T00:38:53.375Z,13.87
2022-11-09T00:41:26.009Z,13.86
2022-11-09T00:43:55.943Z,13.83
2022-11-09T00:46:26.550Z,13.81
2022-11-09T00:48:57.199Z,13.79
2022-11-09T00:51:27.186Z,13.76
2022-11-09T00:53:58.560Z,13.74
2022-11-09T00:56:30.873Z,13.72
2022-11-09T00:59:00.417Z,13.69
2022-11-09T01:01:30.381Z,13.65
2022-11-09T01:04:00.367Z,13.61
2022-11-09T01:06:30.078Z,13.57
2022-11-09T01:09:00.748Z,13.53
2022-11-09T01:11:32.932Z,13.49
2022-11-09T01:14:03.247Z,13.46
2022-11-09T01:16:33.063Z,13.44
2022-11-09T01:19:02.855Z,13.44
2022-11-09T01:21:32.433Z,13.41
2022-11-09T01:24:03.290Z,13.38
2022-11-09T01:26:35.471Z,13.37
2022-11-09T01:29:05.039Z,13.37
2022-11-09T01:31:36.166Z,13.37
2022-11-09T01:34:05.800Z,13.37
2022-11-09T01:36:36.174Z,13.39
2022-11-09T01:39:05.744Z,13.37
2022-11-09T01:41:37.874Z,13.38
2022-11-09T01:44:09.901Z,13.36
2022-11-09T01:46:45.535Z,13.35
2022-11-09T01:49:18.694Z,13.36
2022-11-09T01:51:51.874Z,13.36
2022-11-09T01:54:23.804Z,13.35
2022-11-09T01:56:59.614Z,13.35
2022-11-09T01:59:32.340Z,13.36
2022-11-09T02:02:02.667Z,13.36
2022-11-09T02:04:36.785Z,13.34
2022-11-09T02:07:07.778Z,13.33
2022-11-09T02:09:42.138Z,13.31
2022-11-09T02:12:14.657Z,13.34
2022-11-09T02:14:44.404Z,13.35
2022-11-09T02:17:14.472Z,13.41
2022-11-09T02:19:44.228Z,13.41
2022-11-09T02:22:16.906Z,13.43
2022-11-09T02:24:46.439Z,13.41
2022-11-09T02:27:16.236Z,13.40
2022-11-09T02:29:47.698Z,13.42
2022-11-09T02:32:20.491Z,13.42
2022-11-09T02:34:50.624Z,13.42
2022-11-09T02:37:31.171Z,13.41
2022-11-09T02:40:01.956Z,13.39
2022-11-09T02:42:32.089Z,13.34
2022-11-09T02:45:02.532Z,13.32
2022-11-09T02:47:32.727Z,13.32
2022-11-09T02:50:02.320Z,13.34
2022-11-09T02:52:34.528Z,13.35
2022-11-09T02:55:04.818Z,13.36
2022-11-09T02:57:35.881Z,13.40
2022-11-09T03:00:06.443Z,13.43
2022-11-09T03:02:38.412Z,13.43
2022-11-09T03:05:09.571Z,13.42
2022-11-09T03:07:44.816Z,13.40
2022-11-09T03:10:15.328Z,13.34
2022-11-09T03:12:45.035Z,13.27
2022-11-09T03:15:17.897Z,13.23
2022-11-09T03:17:49.469Z,13.18
2022-11-09T03:20:21.323Z,13.18
2022-11-09T03:22:53.921Z,13.20
2022-11-09T03:25:23.586Z,13.22
2022-11-09T03:27:53.426Z,13.25
2022-11-09T03:30:23.126Z,13.29
2022-11-09T03:32:52.791Z,13.31
2022-11-09T03:35:22.499Z,13.34
2022-11-09T03:37:54.844Z,13.39
2022-11-09T03:40:25.079Z,13.41
2022-11-09T03:42:54.786Z,13.44
2022-11-09T03:45:24.895Z,13.46
2022-11-09T03:47:56.955Z,13.48
2022-11-09T03:50:26.607Z,13.50
2022-11-09T03:52:59.067Z,13.53
2022-11-09T03:55:28.786Z,13.58
2022-11-09T03:57:58.413Z,13.60
2022-11-09T04:00:28.531Z,13.64
2022-11-09T04:02:58.570Z,13.68
2022-11-09T04:05:28.804Z,13.71
2022-11-09T04:08:01.197Z,13.73
2022-11-09T04:10:30.786Z,13.73
2022-11-09T04:13:00.387Z,13.71
2022-11-09T04:15:29.996Z,13.70
2022-11-09T04:18:00.412Z,13.70
2022-11-09T04:20:31.603Z,13.70
2022-11-09T04:23:07.288Z,13.70
2022-11-09T04:25:38.820Z,13.71
2022-11-09T04:28:10.778Z,13.74
2022-11-09T04:30:40.681Z,13.73
2022-11-09T04:33:10.255Z,13.74
2022-11-09T04:35:39.854Z,13.73
2022-11-09T04:38:14.815Z,13.74
2022-11-09T04:40:44.979Z,13.74
2022-11-09T04:43:16.375Z,13.71
2022-11-09T04:45:47.409Z,13.71
2022-11-09T04:48:17.085Z,13.72
2022-11-09T04:50:46.655Z,13.73
2022-11-09T04:53:18.962Z,13.71
2022-11-09T04:55:48.505Z,13.70
2022-11-09T04:58:23.799Z,13.70
2022-11-09T05:00:54.539Z,13.71
2022-11-09T05:03:24.246Z,13.71
2022-11-09T05:05:53.970Z,13.73
2022-11-09T05:08:26.353Z,13.74
2022-11-09T05:10:59.411Z,13.72
2022-11-09T05:13:29.017Z,13.71
2022-11-09T05:15:58.583Z,13.68
2022-11-09T05:18:28.121Z,13.61
2022-11-09T05:21:01.505Z,13.56
2022-11-09T05:23:46.393Z,13.48
2022-11-09T05:26:16.167Z,13.43
2022-11-09T05:28:45.739Z,13.40
2022-11-09T05:31:15.301Z,13.39
2022-11-09T05:33:44.870Z,13.37
2022-11-09T05:36:14.426Z,13.38
2022-11-09T05:38:46.639Z,13.40
2022-11-09T05:41:16.469Z,13.38
2022-11-09T05:43:47.292Z,13.35
2022-11-09T05:46:17.932Z,13.30
2022-11-09T05:48:47.922Z,13.27
2022-11-09T05:51:18.556Z,13.24
2022-11-09T05:53:50.951Z,13.17
2022-11-09T05:56:20.562Z,13.10
2022-11-09T05:58:50.163Z,13.00
2022-11-09T06:01:21.456Z,12.90
2022-11-09T06:03:51.060Z,12.78
2022-11-09T06:06:20.635Z,12.68
2022-11-09T06:08:52.841Z,12.63
2022-11-09T06:11:24.347Z,12.59
2022-11-09T06:13:54.767Z,12.52
2022-11-09T06:16:24.366Z,12.44
2022-11-09T06:18:53.911Z,12.33
2022-11-09T06:21:23.466Z,12.26
2022-11-09T06:23:55.608Z,12.19
2022-11-09T06:26:25.196Z,12.12
2022-11-09T06:28:54.738Z,12.08
2022-11-09T06:31:24.427Z,12.06
2022-11-09T06:33:54.018Z,12.05
2022-11-09T06:36:24.088Z,12.04
2022-11-09T06:38:56.321Z,12.01
2022-11-09T06:41:25.907Z,11.98
2022-11-09T06:43:55.525Z,11.98
2022-11-09T06:46:25.157Z,12.00
2022-11-09T06:48:54.846Z,12.00
2022-11-09T06:51:24.441Z,12.01
2022-11-09T06:53:56.632Z,12.01
2022-11-09T06:56:26.214Z,12.02
2022-11-09T06:58:55.805Z,12.04
2022-11-09T07:01:30.081Z,12.05
2022-11-09T07:04:00.089Z,12.07
2022-11-09T07:06:29.781Z,12.08
2022-11-09T07:09:02.467Z,12.09
2022-11-09T07:11:32.077Z,12.10
2022-11-09T07:14:02.796Z,12.12
2022-11-09T07:16:32.573Z,12.12
2022-11-09T07:19:02.186Z,12.10
2022-11-09T07:21:31.775Z,12.10
2022-11-09T07:24:03.926Z,12.11
2022-11-09T07:26:33.502Z,12.14
2022-11-09T07:29:03.023Z,12.17
2022-11-09T07:31:32.590Z,12.18
2022-11-09T07:34:04.910Z,12.20
2022-11-09T07:36:36.691Z,12.21
2022-11-09T07:39:09.065Z,12.21
2022-11-09T07:41:38.643Z,12.21
2022-11-09T07:44:08.968Z,12.23
2022-11-09T07:46:39.129Z,12.27
2022-11-09T07:49:08.654Z,12.28
2022-11-09T07:51:38.367Z,12.30
2022-11-09T07:54:10.758Z,12.28
2022-11-09T07:56:41.097Z,12.24
2022-11-09T07:59:10.768Z,12.25
2022-11-09T08:01:40.386Z,12.36
2022-11-09T08:04:10.357Z,12.49
2022-11-09T08:06:40.094Z,12.72
2022-11-09T08:09:12.266Z,13.02
2022-11-09T08:11:41.838Z,13.22
2022-11-09T08:14:11.736Z,13.41
2022-11-09T08:16:41.414Z,13.52
2022-11-09T08:19:11.634Z,13.65
2022-11-09T08:21:41.254Z,13.81
2022-11-09T08:24:13.424Z,14.01
2022-11-09T08:26:43.022Z,14.27
2022-11-09T08:29:13.581Z,14.47
2022-11-09T08:31:43.147Z,14.69
2022-11-09T08:34:13.997Z,14.87
2022-11-09T08:36:43.602Z,15.27
2022-11-09T08:39:15.789Z,15.74
2022-11-09T08:41:45.352Z,16.09
2022-11-09T08:44:14.887Z,16.22
2022-11-09T08:46:44.450Z,16.18
2022-11-09T08:49:14.007Z,16.35
2022-11-09T08:51:43.563Z,16.85
2022-11-09T08:54:17.995Z,17.45
2022-11-09T08:56:47.633Z,18.08
2022-11-09T08:59:17.185Z,18.63
2022-11-09T09:01:46.792Z,19.10
2022-11-09T09:04:16.394Z,19.52
2022-11-09T09:06:46.107Z,19.88
2022-11-09T09:09:18.388Z,20.14
2022-11-09T09:11:47.975Z,20.37
2022-11-09T09:14:18.015Z,20.81
2022-11-09T09:16:47.621Z,21.09
2022-11-09T09:19:17.250Z,21.02
2022-11-09T09:21:46.830Z,21.01
2022-11-09T09:24:18.984Z,21.09
2022-11-09T09:26:48.599Z,21.24
2022-11-09T09:29:18.249Z,21.61
2022-11-09T09:31:47.845Z,21.99
2022-11-09T09:34:18.069Z,22.24
2022-11-09T09:36:48.527Z,22.36
2022-11-09T09:39:20.833Z,22.43
2022-11-09T09:41:55.931Z,22.52
2022-11-09T09:44:31.061Z,22.47
2022-11-09T09:47:09.203Z,22.26
2022-11-09T09:49:42.299Z,21.83
2022-11-09T09:52:19.875Z,21.25
2022-11-09T09:54:57.444Z,20.72
2022-11-09T09:57:31.844Z,20.20
2022-11-09T10:00:04.112Z,19.58
2022-11-09T10:02:41.532Z,19.03
2022-11-09T10:05:14.989Z,18.53
2022-11-09T10:07:48.687Z,18.07
2022-11-09T10:10:30.720Z,17.64
2022-11-09T10:13:15.621Z,17.22
2022-11-09T10:15:47.864Z,16.92
2022-11-09T10:18:28.368Z,16.77
2022-11-09T10:21:23.593Z,16.64
2022-11-09T10:24:06.004Z,16.49
2022-11-09T10:26:42.798Z,16.34
2022-11-09T10:29:22.995Z,16.20
2022-11-09T10:31:54.920Z,16.11
2022-11-09T10:34:28.330Z,16.07
2022-11-09T10:37:04.871Z,16.06
2022-11-09T10:39:42.633Z,16.04
2022-11-09T10:42:33.647Z,16.02
2022-11-09T10:45:30.055Z,15.98
2022-11-09T10:48:33.804Z,15.90
2022-11-09T10:51:36.723Z,15.80
2022-11-09T10:54:26.594Z,15.68
2022-11-09T10:57:18.600Z,15.61
2022-11-09T11:00:18.011Z,15.59
2022-11-09T11:03:14.185Z,15.55
2022-11-09T11:06:03.713Z,15.53
2022-11-09T11:08:52.739Z,15.51
2022-11-09T11:11:42.010Z,15.47
2022-11-09T11:14:33.219Z,15.42
2022-11-09T11:17:29.924Z,15.32
2022-11-09T11:20:30.259Z,15.25
2022-11-09T11:23:20.530Z,15.19
2022-11-09T11:26:28.418Z,15.12
2022-11-09T11:29:32.052Z,15.02
2022-11-09T11:32:21.771Z,14.96
2022-11-09T11:35:18.532Z,14.90
2022-11-09T11:38:24.497Z,14.83
2022-11-09T11:41:27.353Z,14.80
2022-11-09T11:44:24.287Z,14.80
2022-11-09T11:47:16.753Z,14.83
2022-11-09T11:50:27.636Z,14.87
2022-11-09T11:53:23.101Z,14.90
2022-11-09T11:56:21.713Z,14.95
2022-11-09T11:59:23.532Z,15.02
2022-11-09T12:02:29.673Z,15.10
2022-11-09T12:05:46.670Z,15.19
2022-11-09T12:08:43.147Z,15.24
2022-11-09T12:11:40.919Z,15.31
2022-11-09T12:14:37.879Z,15.34
2022-11-09T12:17:32.099Z,15.43
2022-11-09T12:20:38.665Z,15.54
2022-11-09T12:23:40.915Z,15.63
2022-11-09T12:26:37.261Z,15.68
2022-11-09T12:29:28.744Z,15.70
2022-11-09T12:32:23.583Z,15.70
2022-11-09T12:35:33.374Z,15.75
2022-11-09T12:38:24.618Z,15.78
2022-11-09T12:41:17.263Z,15.82
2022-11-09T12:44:07.523Z,15.87
2022-11-09T12:47:00.904Z,15.93
2022-11-09T12:49:49.858Z,15.93
2022-11-09T12:52:40.919Z,15.84
2022-11-09T12:55:33.914Z,15.71
2022-11-09T12:58:24.909Z,15.60
2022-11-09T13:01:15.306Z,15.52
2022-11-09T13:04:05.572Z,15.46
2022-11-09T13:07:19.415Z,15.46
2022-11-09T13:10:27.270Z,15.46
2022-11-09T13:13:24.151Z,15.43
2022-11-09T13:16:15.053Z,15.39
2022-11-09T13:19:03.379Z,15.40
2022-11-09T13:21:51.651Z,15.42
2022-11-09T13:24:59.995Z,15.42
2022-11-09T13:27:51.058Z,15.45
2022-11-09T13:30:42.089Z,15.47
2022-11-09T13:33:30.643Z,15.49
2022-11-09T13:36:21.186Z,15.49
2022-11-09T13:39:31.230Z,15.38
2022-11-09T13:42:32.585Z,15.30
2022-11-09T13:45:36.796Z,15.32
2022-11-09T13:48:34.725Z,15.38
2022-11-09T13:51:25.976Z,15.42
2022-11-09T13:54:32.316Z,15.36
2022-11-09T13:57:20.385Z,15.30
2022-11-09T14:00:10.597Z,15.26
2022-11-09T14:03:03.124Z,15.18
2022-11-09T14:05:53.562Z,15.15
2022-11-09T14:08:43.906Z,15.11
2022-11-09T14:11:51.629Z,15.00
2022-11-09T14:14:57.421Z,14.91
2022-11-09T14:17:54.263Z,14.87
2022-11-09T14:20:53.156Z,14.88
2022-11-09T14:23:41.037Z,14.91
2022-11-09T14:26:29.060Z,14.89
2022-11-09T14:29:24.117Z,14.84
2022-11-09T14:32:28.551Z,14.77
2022-11-09T14:35:25.867Z,14.70
2022-11-09T14:38:23.477Z,14.67
2022-11-09T14:41:22.809Z,14.63
2022-11-09T14:44:16.730Z,14.58
2022-11-09T14:47:06.245Z,14.50
2022-11-09T14:49:54.406Z,14.44
2022-11-09T14:52:43.290Z,14.38
2022-11-09T14:55:42.275Z,14.34
2022-11-09T14:58:31.317Z,14.30
2022-11-09T15:01:24.250Z,14.25
2022-11-09T15:04:16.939Z,14.19
2022-11-09T15:07:07.022Z,14.11
2022-11-09T15:09:58.646Z,14.01
2022-11-09T15:12:54.979Z,13.93
2022-11-09T15:15:43.394Z,13.88
2022-11-09T15:18:34.627Z,13.85
2022-11-09T15:21:36.285Z,13.77
2022-11-09T15:24:26.536Z,13.64
2022-11-09T15:27:31.733Z,13.52
2022-11-09T15:30:38.950Z,13.45
2022-11-09T15:33:32.353Z,13.41
2022-11-09T15:36:40.902Z,13.40
2022-11-09T15:39:33.220Z,13.37
2022-11-09T15:42:21.265Z,13.31
2022-11-09T15:45:11.295Z,13.27
2022-11-09T15:48:01.949Z,13.22
2022-11-09T15:50:50.196Z,13.18
2022-11-09T15:53:38.521Z,13.19
2022-11-09T15:56:27.357Z,13.19
2022-11-09T15:59:21.499Z,13.18
2022-11-09T16:02:09.743Z,13.17
2022-11-09T16:05:00.486Z,13.16
2022-11-09T16:07:52.394Z,13.09
2022-11-09T16:10:41.195Z,13.02
2022-11-09T16:13:29.596Z,12.99
2022-11-09T16:16:18.373Z,12.95
2022-11-09T16:19:06.610Z,12.93
2022-11-09T16:21:58.541Z,12.90
2022-11-09T16:24:47.054Z,12.87
2022-11-09T16:27:49.550Z,12.83
2022-11-09T16:30:41.627Z,12.81
2022-11-09T16:33:33.853Z,12.77
2022-11-09T16:36:23.858Z,12.64
2022-11-09T16:39:17.216Z,12.55
2022-11-09T16:42:09.374Z,12.47
2022-11-09T16:45:00.377Z,12.39
2022-11-09T16:47:50.253Z,12.28
2022-11-09T16:50:38.295Z,12.15
2022-11-09T16:53:27.420Z,12.02
2022-11-09T16:56:18.077Z,11.89
2022-11-09T16:59:06.115Z,11.76
2022-11-09T17:01:54.781Z,11.67
2022-11-09T17:04:42.984Z,11.58
2022-11-09T17:07:31.920Z,11.50
2022-11-09T17:10:20.886Z,11.42
2022-11-09T17:13:11.490Z,11.38
2022-11-09T17:15:59.804Z,11.38
2022-11-09T17:18:47.956Z,11.38
2022-11-09T17:21:36.026Z,11.41
2022-11-09T17:24:23.993Z,11.45
2022-11-09T17:27:12.378Z,11.47
2022-11-09T17:30:02.934Z,11.50
2022-11-09T17:32:51.128Z,11.52
2022-11-09T17:35:40.151Z,11.53
2022-11-09T17:38:28.455Z,11.54
2022-11-09T17:41:18.417Z,11.57
2022-11-09T17:44:06.941Z,11.59
2022-11-09T17:46:57.710Z,11.63
2022-11-09T17:49:45.706Z,11.69
2022-11-09T17:52:33.847Z,11.76
2022-11-09T17:55:22.035Z,11.84
2022-11-09T17:58:11.852Z,11.89
2022-11-09T18:00:59.898Z,11.95
2022-11-09T18:03:51.232Z,11.98
2022-11-09T18:06:39.703Z,11.99
2022-11-09T18:09:40.893Z,12.02
2022-11-09T18:12:30.057Z,12.01
2022-11-09T18:15:18.274Z,12.01
2022-11-09T18:18:07.000Z,12.00
2022-11-09T18:20:57.929Z,11.97
2022-11-09T18:23:46.773Z,11.88
2022-11-09T18:26:35.016Z,11.75
2022-11-09T18:29:23.759Z,11.62
2022-11-09T18:32:11.975Z,11.49
2022-11-09T18:34:59.965Z,11.37
2022-11-09T18:37:50.513Z,11.25
2022-11-09T18:40:38.872Z,11.13
2022-11-09T18:43:26.910Z,11.05
2022-11-09T18:46:16.855Z,10.96
2022-11-09T18:49:08.950Z,10.91
2022-11-09T18:51:59.940Z,10.88
2022-11-09T18:54:50.885Z,10.89
2022-11-09T18:57:39.156Z,10.90
2022-11-09T19:00:27.030Z,10.89
2022-11-09T19:03:17.391Z,10.87
2022-11-09T19:06:08.273Z,10.85
2022-11-09T19:09:09.050Z,10.85
2022-11-09T19:12:00.939Z,10.86
2022-11-09T19:14:49.462Z,10.90
2022-11-09T19:17:37.823Z,10.98
2022-11-09T19:20:26.079Z,11.06
2022-11-09T19:23:14.103Z,11.09
2022-11-09T19:26:03.807Z,11.10
2022-11-09T19:28:54.588Z,11.13
2022-11-09T19:31:43.357Z,11.12
2022-11-09T19:34:31.701Z,11.11
2022-11-09T19:37:19.595Z,11.07
2022-11-09T19:40:09.420Z,11.02
2022-11-09T19:42:57.725Z,10.95
2022-11-09T19:45:48.315Z,10.89
2022-11-09T19:48:36.565Z,10.84
2022-11-09T19:51:24.873Z,10.80
2022-11-09T19:54:15.269Z,10.75
2022-11-09T19:57:03.265Z,10.71
2022-11-09T19:59:51.254Z,10.68
2022-11-09T20:02:41.694Z,10.65
2022-11-09T20:05:31.140Z,10.63
2022-11-09T20:08:19.717Z,10.60
2022-11-09T20:11:09.121Z,10.59
2022-11-09T20:13:57.415Z,10.57
2022-11-09T20:16:47.906Z,10.58
2022-11-09T20:19:38.442Z,10.56
2022-11-09T20:22:26.394Z,10.59
2022-11-09T20:25:14.387Z,10.61
2022-11-09T20:28:02.457Z,10.62
2022-11-09T20:30:50.343Z,10.60
2022-11-09T20:33:38.383Z,10.58
2022-11-09T20:36:29.054Z,10.60
2022-11-09T20:39:18.170Z,10.62
2022-11-09T20:42:07.288Z,10.65
2022-11-09T20:44:56.647Z,10.72
2022-11-09T20:48:05.045Z,10.80
2022-11-09T20:50:52.919Z,10.88
2022-11-09T20:53:43.511Z,10.96
2022-11-09T20:56:31.603Z,10.99
2022-11-09T20:59:19.693Z,11.01
2022-11-09T21:02:08.086Z,11.00
2022-11-09T21:04:55.988Z,10.96
2022-11-09T21:07:44.132Z,10.87
2022-11-09T21:10:34.916Z,10.80
2022-11-09T21:13:23.238Z,10.75
2022-11-09T21:16:13.162Z,10.68
2022-11-09T21:19:01.099Z,10.59
2022-11-09T21:21:49.257Z,10.50
2022-11-09T21:24:50.198Z,10.46
2022-11-09T21:27:53.467Z,10.42
2022-11-09T21:30:41.485Z,10.44
2022-11-09T21:33:29.519Z,10.42
2022-11-09T21:36:18.210Z,10.37
2022-11-09T21:39:06.548Z,10.29
2022-11-09T21:41:54.762Z,10.24
2022-11-09T21:44:45.540Z,10.20
2022-11-09T21:47:33.415Z,10.16
2022-11-09T21:50:21.612Z,10.12
2022-11-09T21:53:09.759Z,10.11
2022-11-09T21:55:57.714Z,10.18
2022-11-09T21:58:46.067Z,10.21
2022-11-09T22:01:37.185Z,10.21
2022-11-09T22:04:25.565Z,10.18
2022-11-09T22:07:13.947Z,10.15
2022-11-09T22:10:11.169Z,10.12
2022-11-09T22:13:12.564Z,10.05
2022-11-09T22:16:10.216Z,9.98
2022-11-09T22:19:14.072Z,9.91
2022-11-09T22:22:02.208Z,9.86
2022-11-09T22:24:50.354Z,9.81
2022-11-09T22:27:38.612Z,9.77
2022-11-09T22:30:26.859Z,9.74
2022-11-09T22:33:15.641Z,9.71
2022-11-09T22:36:08.165Z,9.69
2022-11-09T22:38:56.382Z,9.68
2022-11-09T22:41:47.422Z,9.69
2022-11-09T22:44:35.440Z,9.72
2022-11-09T22:47:23.797Z,9.77
2022-11-09T22:50:12.522Z,9.83
2022-11-09T22:53:04.103Z,9.88
2022-11-09T22:55:54.984Z,9.91
2022-11-09T22:58:44.360Z,9.97
2022-11-09T23:01:32.723Z,10.05
2022-11-09T23:04:21.105Z,10.13
2022-11-09T23:07:09.503Z,10.20
2022-11-09T23:10:00.479Z,10.26
2022-11-09T23:12:48.502Z,10.31
2022-11-09T23:15:36.427Z,10.33
2022-11-09T23:18:36.964Z,10.34
2022-11-09T23:21:27.327Z,10.37
2022-11-09T23:24:37.330Z,10.44
2022-11-09T23:27:27.987Z,10.48
2022-11-09T23:30:16.418Z,10.48
2022-11-09T23:33:05.160Z,10.43
2022-11-09T23:35:53.059Z,10.31
2022-11-09T23:38:42.066Z,10.17
2022-11-09T23:41:29.960Z,10.05
2022-11-09T23:44:20.532Z,9.99
2022-11-09T23:47:08.508Z,10.05
2022-11-09T23:49:56.502Z,10.14
2022-11-09T23:52:44.748Z,10.24
2022-11-09T23:55:33.032Z,10.33
2022-11-09T23:58:21.021Z,10.42
